Airfield :
LOGIN :

Register | Disclaimer

   EN    FR    IT 

 










Legend :    VFR   Marginal VFR   IFR   Intensive IFR   Very Intensive IFR
Visi :
Ceiling :
>= 8 km
>= 3000ft
5 to 8 km
1000 to 3000 ft
1500m to 5 km
500 to 1000 ft
800 to 1500m
200 to 500 ft
< 800m
< 200 ft
Symbols :   Thunderstorms  Fog  Heavy snow  Heavy precipitations  Wind > 20 kt
SIGMETs :     Misc.  Thunderstorms  Icing  Turbulence  Mountain Waves  Volcanic Ashes






- Airport Elevation : 584 ft


LFPV - Villacoublay Vélizy

CURRENT METAR :
  • 011330Z AUTO 02011KT 9999 OVC012 05/03 Q1025 TEMPO BKN015

EXPIRED METARs :
  • 011300Z AUTO 02011KT 9999 BKN011 OVC047 05/03 Q1025 TEMPO BKN015
  • 011230Z AUTO 01011KT 340V040 9999 BKN011 BKN045 05/02 Q1025 TEMPO BKN015
  • 011200Z AUTO 35009KT 9999 BKN011 OVC045 05/03 Q1025 TEMPO BKN015
  • 011130Z AUTO 36009KT 330V040 9999 BKN011 OVC045 05/03 Q1025 TEMPO BKN015
  • 011100Z AUTO 36009KT 9000 BKN009 OVC044 05/03 Q1025 TEMPO BKN015

TAF TAF LFPV
Valid from the 01 at 09:00 until the 02 at 09:00 UTC


010800Z 0109/0209 02010KT 5000 BR BKN006 BKN030 TX06/0115Z TN02/0203Z
BECMG 0110/0112 8000 NSW BKN010
TEMPO 0112/0118 BKN015
BECMG 0122/0124 BKN008 OVC015
PROB30
TEMPO 0200/0206 4000 BR BKN005



MET'MAP, your aeronautical weather chart ! - Copyright ORBIFLY December 2007 - Disclaimer

ORBIFLY MET'MAP TEAM :

Programming & Development : Alexandra Zaïnal
Original concept : Baudouin d'Aumeries
Technical & hardware support : Manuel Goepfert
Assistance : Marc-Olivier Méhu




SOURCES & CREDITS :

   NOAA